createdAt,value
2022-10-09T00:01:39.322Z,18.65
2022-10-09T00:06:34.636Z,21.80
2022-10-09T00:11:30.469Z,19.73
2022-10-09T00:16:25.208Z,20.27
2022-10-09T00:21:24.933Z,20.95
2022-10-09T00:26:19.563Z,21.38
2022-10-09T00:31:14.038Z,21.50
2022-10-09T00:36:10.489Z,21.83
2022-10-09T00:41:03.132Z,19.63
2022-10-09T00:45:57.529Z,19.02
2022-10-09T00:50:54.291Z,18.85
2022-10-09T00:55:47.409Z,20.90
2022-10-09T01:00:41.346Z,20.95
2022-10-09T01:06:03.084Z,23.65
2022-10-09T01:11:06.038Z,23.15
2022-10-09T01:16:19.289Z,26.35
2022-10-09T01:21:20.797Z,24.38
2022-10-09T01:26:16.821Z,25.90
2022-10-09T01:31:11.961Z,26.45
2022-10-09T01:36:07.490Z,29.52
2022-10-09T01:41:03.999Z,27.10
2022-10-09T01:46:18.059Z,29.00
2022-10-09T01:51:11.411Z,25.85
2022-10-09T01:56:15.415Z,30.42
2022-10-09T02:01:12.475Z,27.67
2022-10-09T02:06:08.241Z,27.70
2022-10-09T02:11:03.769Z,27.95
2022-10-09T02:16:27.306Z,29.95
2022-10-09T02:21:24.858Z,31.08
2022-10-09T02:26:22.900Z,29.48
2022-10-09T02:31:23.409Z,29.35
2022-10-09T02:36:17.448Z,33.10
2022-10-09T02:41:11.255Z,31.77
2022-10-09T02:46:05.351Z,31.38
2022-10-09T02:51:00.565Z,32.28
2022-10-09T02:55:54.384Z,33.80
2022-10-09T03:00:52.001Z,33.05
2022-10-09T03:05:46.067Z,31.55
2022-10-09T03:10:40.216Z,33.97
2022-10-09T03:15:42.482Z,33.05
2022-10-09T03:20:36.726Z,33.53
2022-10-09T03:25:31.385Z,34.60
2022-10-09T03:30:25.205Z,33.55
2022-10-09T03:35:18.852Z,30.05
2022-10-09T03:40:12.456Z,32.13
2022-10-09T03:45:07.893Z,31.42
2022-10-09T03:50:01.203Z,32.35
2022-10-09T03:54:55.340Z,31.65
2022-10-09T03:59:49.144Z,31.90
2022-10-09T04:04:45.803Z,30.88
2022-10-09T04:09:39.704Z,33.33
2022-10-09T04:14:31.863Z,32.75
2022-10-09T04:19:25.664Z,34.13
2022-10-09T04:24:19.673Z,32.33
2022-10-09T04:29:13.811Z,33.42
2022-10-09T04:34:07.861Z,33.28
2022-10-09T04:39:01.751Z,33.65
2022-10-09T04:43:56.772Z,33.63
2022-10-09T04:48:50.576Z,35.90
2022-10-09T04:53:44.079Z,37.03
2022-10-09T04:58:39.708Z,35.28
2022-10-09T05:03:33.294Z,36.60
2022-10-09T05:08:26.768Z,37.90
2022-10-09T05:13:20.657Z,35.33
2022-10-09T05:18:14.387Z,35.20
2022-10-09T05:23:08.531Z,35.55
2022-10-09T05:28:02.705Z,35.25
2022-10-09T05:32:56.307Z,35.97
2022-10-09T05:37:50.108Z,32.00
2022-10-09T05:42:43.849Z,35.58
2022-10-09T05:47:37.684Z,34.30
2022-10-09T05:52:31.567Z,34.60
2022-10-09T05:57:24.935Z,34.45
2022-10-09T06:02:25.541Z,36.55
2022-10-09T06:07:19.284Z,34.53
2022-10-09T06:12:13.045Z,36.15
2022-10-09T06:17:07.638Z,36.40
2022-10-09T06:22:01.811Z,35.75
2022-10-09T06:26:55.795Z,35.97
2022-10-09T06:31:48.969Z,37.03
2022-10-09T06:36:42.932Z,37.33
2022-10-09T06:41:36.811Z,38.65
2022-10-09T06:46:44.187Z,41.05
2022-10-09T06:51:38.455Z,40.22
2022-10-09T06:56:33.236Z,43.28
2022-10-09T07:01:27.310Z,43.30
2022-10-09T07:06:22.395Z,40.97
2022-10-09T07:11:44.070Z,43.85
2022-10-09T07:16:40.254Z,42.53
2022-10-09T07:21:34.648Z,42.00
2022-10-09T07:26:30.613Z,44.22
2022-10-09T07:31:25.357Z,43.45
2022-10-09T07:36:19.321Z,47.42
2022-10-09T07:41:13.718Z,45.65
2022-10-09T07:46:11.746Z,46.80
2022-10-09T07:56:05.306Z,44.88
2022-10-09T08:01:04.074Z,40.20
2022-10-09T08:05:57.789Z,37.97
2022-10-09T08:10:52.050Z,35.05
2022-10-09T08:15:46.587Z,33.15
2022-10-09T08:20:40.531Z,26.67
2022-10-09T08:25:38.227Z,24.33
2022-10-09T08:30:32.296Z,24.90
2022-10-09T08:35:26.919Z,22.98
2022-10-09T08:40:46.576Z,25.30
2022-10-09T08:45:41.002Z,24.42
2022-10-09T08:50:39.467Z,25.45
2022-10-09T08:55:40.346Z,28.42
2022-10-09T09:01:15.147Z,26.00
2022-10-09T09:06:15.565Z,22.27
2022-10-09T09:11:26.946Z,24.42
2022-10-09T09:16:52.194Z,21.85
2022-10-09T09:22:09.576Z,27.20
2022-10-09T09:27:07.440Z,26.08
2022-10-09T09:32:02.654Z,24.88
2022-10-09T09:36:59.850Z,23.80
2022-10-09T09:41:54.595Z,25.80
2022-10-09T09:46:48.920Z,26.42
2022-10-09T09:51:42.548Z,28.60
2022-10-09T09:57:10.332Z,27.42
2022-10-09T10:02:17.797Z,26.67
2022-10-09T10:07:11.801Z,23.75
2022-10-09T10:12:07.797Z,23.25
2022-10-09T10:17:02.267Z,22.55
2022-10-09T10:22:01.814Z,24.52
2022-10-09T10:26:59.690Z,22.77
2022-10-09T10:32:13.460Z,22.20
2022-10-09T10:37:15.483Z,21.52
2022-10-09T10:42:22.133Z,20.88
2022-10-09T10:47:28.700Z,19.25
2022-10-09T10:52:37.465Z,17.75
2022-10-09T10:57:40.760Z,15.52
2022-10-09T11:03:07.902Z,15.07
2022-10-09T11:08:20.152Z,14.13
2022-10-09T11:13:32.851Z,14.57
2022-10-09T11:18:37.108Z,15.57
2022-10-09T11:23:58.079Z,13.18
2022-10-09T11:28:59.092Z,14.60
2022-10-09T11:33:57.756Z,14.25
2022-10-09T11:38:54.587Z,12.13
2022-10-09T11:44:16.175Z,11.55
2022-10-09T11:49:23.829Z,12.52
2022-10-09T11:59:23.298Z,13.75
2022-10-09T12:04:54.395Z,12.50
2022-10-09T12:09:50.966Z,12.43
2022-10-09T12:14:52.501Z,11.63
2022-10-09T12:19:46.306Z,13.27
2022-10-09T12:24:48.756Z,13.52
2022-10-09T12:29:46.457Z,12.45
2022-10-09T12:34:46.172Z,11.83
2022-10-09T12:39:39.913Z,11.70
2022-10-09T12:44:40.733Z,10.15
2022-10-09T12:49:34.012Z,11.45
2022-10-09T12:54:28.897Z,11.48
2022-10-09T12:59:23.222Z,10.98
2022-10-09T13:04:27.338Z,11.15
2022-10-09T13:09:33.764Z,8.75
2022-10-09T13:14:39.194Z,9.00
2022-10-09T13:19:36.222Z,8.10
2022-10-09T13:24:30.014Z,7.70
2022-10-09T13:29:27.530Z,6.28
2022-10-09T13:34:24.777Z,7.45
2022-10-09T13:39:18.641Z,6.80
2022-10-09T13:44:17.992Z,6.63
2022-10-09T13:49:13.815Z,6.78
2022-10-09T13:54:07.574Z,7.03
2022-10-09T13:59:02.111Z,6.30
2022-10-09T14:03:58.845Z,5.97
2022-10-09T14:08:56.235Z,6.60
2022-10-09T14:13:50.471Z,5.78
2022-10-09T14:18:45.903Z,4.97
2022-10-09T14:23:40.497Z,4.88
2022-10-09T14:28:35.626Z,6.47
2022-10-09T14:33:34.857Z,4.63
2022-10-09T14:38:29.502Z,5.07
2022-10-09T14:43:24.480Z,5.07
2022-10-09T14:48:19.401Z,4.80
2022-10-09T14:53:13.142Z,4.55
2022-10-09T14:58:07.625Z,6.70
2022-10-09T15:03:00.883Z,5.32
2022-10-09T15:07:55.928Z,4.60
2022-10-09T15:12:52.729Z,4.20
2022-10-09T15:17:48.491Z,4.13
2022-10-09T15:22:43.677Z,4.50
2022-10-09T15:27:44.466Z,4.32
2022-10-09T15:32:40.187Z,4.63
2022-10-09T15:37:34.592Z,5.60
2022-10-09T15:42:29.506Z,5.20
2022-10-09T15:47:46.503Z,7.85
2022-10-09T15:52:46.336Z,7.28
2022-10-09T15:57:51.623Z,6.55
2022-10-09T16:02:52.227Z,7.57
2022-10-09T16:07:50.203Z,9.27
2022-10-09T16:12:48.509Z,7.72
2022-10-09T16:17:43.588Z,7.75
2022-10-09T16:22:44.484Z,7.13
2022-10-09T16:27:40.210Z,7.60
2022-10-09T16:32:38.612Z,8.25
2022-10-09T16:37:38.078Z,8.35
2022-10-09T16:47:37.943Z,9.95
2022-10-09T16:52:33.548Z,8.60
2022-10-09T16:57:29.724Z,8.27
2022-10-09T17:02:24.708Z,8.88
2022-10-09T17:07:21.526Z,8.60
2022-10-09T17:12:15.316Z,8.25
2022-10-09T17:17:10.740Z,8.95
2022-10-09T17:22:04.635Z,7.85
2022-10-09T17:27:01.908Z,8.73
2022-10-09T17:31:55.924Z,8.98
2022-10-09T17:36:49.749Z,9.63
2022-10-09T17:41:45.980Z,8.15
2022-10-09T17:46:39.543Z,9.95
2022-10-09T17:51:35.667Z,9.07
2022-10-09T17:56:30.880Z,9.57
2022-10-09T18:01:24.709Z,9.07
2022-10-09T18:06:19.767Z,9.20
2022-10-09T18:11:18.650Z,10.25
2022-10-09T18:16:14.302Z,8.85
2022-10-09T18:21:10.874Z,9.50
2022-10-09T18:26:29.207Z,9.07
2022-10-09T18:31:24.237Z,8.98
2022-10-09T18:36:20.952Z,9.38
2022-10-09T18:41:14.541Z,8.93
2022-10-09T18:46:09.626Z,9.43
2022-10-09T18:51:03.907Z,9.63
2022-10-09T18:55:57.305Z,9.50
2022-10-09T19:00:51.311Z,10.95
2022-10-09T19:05:45.445Z,12.30
2022-10-09T19:10:39.224Z,12.20
2022-10-09T19:15:33.472Z,12.70
2022-10-09T19:20:32.446Z,12.98
2022-10-09T19:25:27.671Z,12.98
2022-10-09T19:30:21.885Z,13.50
2022-10-09T19:35:15.897Z,13.77
2022-10-09T19:40:11.033Z,14.15
2022-10-09T19:45:06.591Z,14.13
2022-10-09T19:50:00.378Z,14.23
2022-10-09T19:54:54.261Z,14.65
2022-10-09T19:59:48.519Z,17.10
2022-10-09T20:04:42.361Z,19.65
2022-10-09T20:09:36.365Z,18.05
2022-10-09T20:14:30.385Z,18.27
2022-10-09T20:19:25.535Z,18.67
2022-10-09T20:24:23.134Z,17.17
2022-10-09T20:29:17.235Z,18.15
2022-10-09T20:34:11.229Z,17.67
2022-10-09T20:39:10.028Z,17.40
2022-10-09T20:44:04.315Z,16.92
2022-10-09T20:48:58.519Z,17.33
2022-10-09T20:53:55.803Z,17.40
2022-10-09T20:58:50.054Z,19.38
2022-10-09T21:03:44.633Z,17.80
2022-10-09T21:08:38.163Z,17.50
2022-10-09T21:13:32.441Z,19.75
2022-10-09T21:18:27.032Z,18.13
2022-10-09T21:23:20.844Z,18.10
2022-10-09T21:28:14.520Z,19.52
2022-10-09T21:33:08.981Z,20.35
2022-10-09T21:38:03.195Z,19.17
2022-10-09T21:42:57.623Z,20.08
2022-10-09T21:47:51.637Z,18.50
2022-10-09T21:52:45.740Z,18.88
2022-10-09T21:57:39.284Z,19.23
2022-10-09T22:02:32.424Z,18.48
2022-10-09T22:07:26.960Z,18.15
2022-10-09T22:12:20.147Z,19.77
2022-10-09T22:17:14.269Z,19.08
2022-10-09T22:22:07.888Z,17.85
2022-10-09T22:27:01.539Z,19.25
2022-10-09T22:31:55.068Z,20.48
2022-10-09T22:36:48.474Z,20.30
2022-10-09T22:41:41.612Z,20.95
2022-10-09T22:46:40.476Z,21.45
2022-10-09T22:51:34.132Z,21.35
2022-10-09T22:56:39.706Z,23.20
2022-10-09T23:02:02.645Z,23.23
2022-10-09T23:06:58.644Z,23.67
2022-10-09T23:11:52.115Z,22.30
2022-10-09T23:16:45.812Z,22.77
2022-10-09T23:21:40.837Z,23.90
2022-10-09T23:26:37.912Z,22.75
2022-10-09T23:31:32.087Z,23.92
2022-10-09T23:36:27.713Z,23.20
2022-10-09T23:41:23.740Z,21.75
2022-10-09T23:46:38.421Z,20.35
2022-10-09T23:51:32.149Z,19.40
2022-10-09T23:56:31.032Z,16.70
